Time,TemperatureF,DewpointF,PressureIn,WindDirection,WindDirectionDegrees,WindSpeedMPH,WindSpeedGustMPH,Humidity,HourlyPrecipIn,Conditions,Clouds,dailyrainin,SoftwareType,DateUTC
2013-09-02 00:23:00,67.0,59.0,29.81,NNW,343,3.0,3.0,75,0.00,,,0.00,,2013-09-02 05:23:00,
2013-09-02 00:52:00,67.0,60.0,29.81,NW,313,2.0,9.0,79,0.00,,,0.00,,2013-09-02 05:52:00,
2013-09-02 01:22:00,66.0,59.0,29.82,NNW,337,2.0,9.0,79,0.00,,,0.00,,2013-09-02 06:22:00,
2013-09-02 01:43:00,66.0,60.0,29.82,NNW,347,1.0,9.0,80,0.00,,,0.00,,2013-09-02 06:43:00,
2013-09-02 01:52:00,66.0,60.0,29.82,NNW,330,3.0,9.0,80,0.00,,,0.00,,2013-09-02 06:52:00,
2013-09-02 02:21:00,65.0,59.0,29.82,NNW,329,2.0,9.0,80,0.00,,,0.00,,2013-09-02 07:21:00,
2013-09-02 02:52:00,65.0,59.0,29.83,North,349,2.0,9.0,82,0.00,,,0.00,,2013-09-02 07:52:00,
2013-09-02 03:22:00,64.0,58.0,29.83,NE,52,2.0,9.0,82,0.00,,,0.00,,2013-09-02 08:22:00,
2013-09-02 03:52:00,64.0,60.0,29.83,North,5,3.0,9.0,88,0.00,,,0.00,,2013-09-02 08:52:00,
2013-09-02 04:22:00,64.0,60.0,29.83,NW,325,3.0,9.0,88,0.00,,,0.00,,2013-09-02 09:22:00,
2013-09-02 04:53:00,64.0,61.0,29.84,North,3,2.0,9.0,90,0.00,,,0.00,,2013-09-02 09:53:00,
2013-09-02 05:22:00,63.0,60.0,29.84,NNW,336,2.0,9.0,90,0.00,,,0.00,,2013-09-02 10:22:00,
2013-09-02 05:53:00,62.0,59.0,29.85,WSW,246,2.0,9.0,90,0.00,,,0.00,,2013-09-02 10:53:00,
2013-09-02 06:22:00,62.0,59.0,29.85,NNW,339,1.0,9.0,90,0.00,,,0.00,,2013-09-02 11:22:00,
2013-09-02 06:52:00,62.0,59.0,29.85,NW,317,2.0,9.0,90,0.00,,,0.00,,2013-09-02 11:52:00,
2013-09-02 07:21:00,61.0,58.0,29.86,NW,320,0.0,9.0,90,0.00,,,0.00,,2013-09-02 12:21:00,
2013-09-02 07:52:00,62.0,59.0,29.86,North,3,2.0,9.0,90,0.00,,,0.00,,2013-09-02 12:52:00,
2013-09-02 08:22:00,64.0,61.0,29.95,North,1,3.0,10.0,90,0.00,,,0.00,,2013-09-02 13:22:00,
2013-09-02 09:22:00,67.0,64.0,29.94,North,2,5.0,14.0,89,0.00,,,0.00,,2013-09-02 14:22:00,
2013-09-02 09:52:00,69.0,66.0,29.95,WNW,285,3.0,14.0,89,0.00,,,0.00,,2013-09-02 14:52:00,
2013-09-02 10:23:00,70.0,67.0,29.95,North,357,5.0,14.0,89,0.00,,,0.00,,2013-09-02 15:23:00,
2013-09-02 10:55:00,72.0,64.0,29.95,NW,310,3.0,14.0,75,0.00,,,0.00,,2013-09-02 15:55:00,
2013-09-02 11:24:00,73.0,65.0,29.95,North,356,2.0,14.0,75,0.00,,,0.00,,2013-09-02 16:24:00,
2013-09-02 11:53:00,72.0,61.0,29.95,North,4,3.0,14.0,69,0.00,,,0.00,,2013-09-02 16:53:00,
2013-09-02 12:23:00,74.0,63.0,29.96,West,276,6.0,14.0,69,0.00,,,0.00,,2013-09-02 17:23:00,
2013-09-02 12:52:00,76.0,62.0,29.96,North,1,2.0,14.0,62,0.00,,,0.00,,2013-09-02 17:52:00,
2013-09-02 13:13:00,75.0,61.0,29.96,WNW,296,5.0,14.0,62,0.00,,,0.00,,2013-09-02 18:13:00,
2013-09-02 13:22:00,77.0,63.0,29.96,West,280,5.0,14.0,62,0.00,,,0.00,,2013-09-02 18:22:00,
2013-09-02 13:52:00,77.0,60.0,29.96,SW,224,1.0,14.0,55,0.00,,,0.00,,2013-09-02 18:52:00,
2013-09-02 14:22:00,76.0,59.0,29.96,NNW,346,5.0,14.0,55,0.00,,,0.00,,2013-09-02 19:22:00,
2013-09-02 14:52:00,75.0,56.0,29.96,WNW,301,1.0,14.0,51,0.00,,,0.00,,2013-09-02 19:52:00,
2013-09-02 15:22:00,77.0,57.0,29.96,NNW,335,1.0,14.0,51,0.00,,,0.00,,2013-09-02 20:22:00,
2013-09-02 15:52:00,78.0,58.0,29.96,NW,317,2.0,14.0,51,0.00,,,0.00,,2013-09-02 20:52:00,
2013-09-02 16:23:00,78.0,58.0,29.96,NW,305,5.0,14.0,51,0.00,,,0.00,,2013-09-02 21:23:00,
2013-09-02 16:55:00,78.0,57.0,29.96,NNW,332,3.0,14.0,49,0.00,,,0.00,,2013-09-02 21:55:00,
2013-09-02 17:24:00,78.0,57.0,29.96,NNE,13,2.0,14.0,49,0.00,,,0.00,,2013-09-02 22:24:00,
2013-09-02 17:54:00,77.0,57.0,29.96,NNW,346,5.0,14.0,51,0.00,,,0.00,,2013-09-02 22:54:00,
2013-09-02 18:22:00,76.0,57.0,29.96,North,4,5.0,14.0,51,0.00,,,0.00,,2013-09-02 23:22:00,
2013-09-02 18:53:00,75.0,57.0,29.96,NW,323,1.0,14.0,53,0.00,,,0.00,,2013-09-02 23:53:00,
2013-09-02 19:21:00,73.0,55.0,29.96,NNW,340,0.0,14.0,53,0.00,,,0.00,,2013-09-03 00:21:00,
2013-09-02 19:42:00,70.0,55.0,29.96,NNW,340,0.0,14.0,58,0.00,,,0.00,,2013-09-03 00:42:00,
2013-09-02 19:52:00,68.0,53.0,29.96,NNW,340,0.0,14.0,58,0.00,,,0.00,,2013-09-03 00:52:00,
2013-09-02 20:52:00,66.0,53.0,29.96,NNW,346,2.0,14.0,64,0.00,,,0.00,,2013-09-03 01:52:00,
2013-09-02 21:21:00,65.0,53.0,29.96,NNW,339,3.0,14.0,64,0.00,,,0.00,,2013-09-03 02:21:00,
2013-09-02 21:42:00,64.0,56.0,29.96,North,355,3.0,14.0,76,0.00,,,0.00,,2013-09-03 02:42:00,
2013-09-02 21:52:00,63.0,55.0,29.96,North,5,2.0,14.0,76,0.00,,,0.00,,2013-09-03 02:52:00,
2013-09-02 22:23:00,62.0,54.0,29.96,North,7,5.0,14.0,76,0.00,,,0.00,,2013-09-03 03:23:00,
2013-09-02 22:55:00,61.0,55.0,29.97,North,4,2.0,14.0,80,0.00,,,0.00,,2013-09-03 03:55:00,
2013-09-02 23:25:00,60.0,54.0,29.97,NW,310,1.0,14.0,80,0.00,,,0.00,,2013-09-03 04:25:00,
2013-09-02 23:53:00,59.0,55.0,29.97,SW,216,0.0,14.0,86,0.00,,,0.00,,2013-09-03 04:53:00,